createdAt,value
2019-04-21T00:02:22.863Z,5.70
2019-04-21T00:04:55.513Z,5.70
2019-04-21T00:07:31.865Z,5.60
2019-04-21T00:09:59.734Z,5.60
2019-04-21T00:12:22.792Z,7.30
2019-04-21T00:14:46.038Z,5.50
2019-04-21T00:17:09.738Z,5.50
2019-04-21T00:19:37.157Z,5.50
2019-04-21T00:22:16.136Z,5.40
2019-04-21T00:24:44.722Z,5.40
2019-04-21T00:27:15.989Z,5.40
2019-04-21T00:29:42.559Z,5.30
2019-04-21T00:32:10.235Z,5.30
2019-04-21T00:34:23.735Z,5.30
2019-04-21T00:37:00.177Z,5.20
2019-04-21T00:39:50.957Z,5.20
2019-04-21T00:42:08.694Z,5.10
2019-04-21T00:44:26.145Z,5.10
2019-04-21T00:46:58.375Z,5.10
2019-04-21T00:49:32.016Z,5.00
2019-04-21T00:52:22.102Z,5.00
2019-04-21T00:55:16.372Z,5.00
2019-04-21T00:57:37.686Z,4.90
2019-04-21T01:00:00.843Z,4.90
2019-04-21T01:02:36.490Z,4.90
2019-04-21T01:05:00.028Z,4.80
2019-04-21T01:07:26.933Z,4.80
2019-04-21T01:09:46.266Z,4.70
2019-04-21T01:12:19.050Z,4.70
2019-04-21T01:14:59.480Z,4.70
2019-04-21T01:17:19.240Z,4.70
2019-04-21T01:19:39.770Z,4.60
2019-04-21T01:21:50.988Z,4.60
2019-04-21T01:24:25.910Z,4.50
2019-04-21T01:26:58.362Z,4.50
2019-04-21T01:29:37.451Z,4.50
2019-04-21T01:32:08.566Z,4.50
2019-04-21T01:34:33.179Z,4.40
2019-04-21T01:36:54.230Z,4.40
2019-04-21T01:39:27.157Z,4.30
2019-04-21T01:41:57.225Z,4.30
2019-04-21T01:44:32.600Z,4.30
2019-04-21T01:46:45.810Z,4.30
2019-04-21T01:49:14.399Z,4.30
2019-04-21T01:52:02.901Z,4.20
2019-04-21T01:54:33.203Z,4.20
2019-04-21T01:57:01.620Z,4.20
2019-04-21T01:59:26.991Z,4.10
2019-04-21T02:02:02.417Z,4.10
2019-04-21T02:04:36.437Z,4.10
2019-04-21T02:06:57.372Z,4.10
2019-04-21T02:09:29.469Z,4.00
2019-04-21T02:12:06.079Z,4.00
2019-04-21T02:14:31.166Z,4.00
2019-04-21T02:16:54.175Z,4.00
2019-04-21T02:19:16.686Z,4.00
2019-04-21T02:21:41.045Z,3.90
2019-04-21T02:24:25.686Z,3.90
2019-04-21T02:26:45.659Z,3.90
2019-04-21T02:29:18.999Z,3.90
2019-04-21T02:31:55.368Z,3.80
2019-04-21T02:36:58.924Z,3.80
2019-04-21T02:44:24.358Z,3.70
2019-04-21T02:49:12.986Z,3.70
2019-04-21T02:54:31.503Z,3.60
2019-04-21T02:56:34.462Z,3.70
2019-04-21T02:59:02.282Z,3.60
2019-04-21T03:01:50.448Z,3.60
2019-04-21T03:04:18.847Z,3.60
2019-04-21T03:07:09.384Z,3.60
2019-04-21T03:09:31.459Z,3.50
2019-04-21T03:12:05.084Z,3.50
2019-04-21T03:14:47.921Z,3.50
2019-04-21T03:16:52.749Z,3.50
2019-04-21T03:19:33.053Z,3.50
2019-04-21T03:21:52.825Z,3.50
2019-04-21T03:24:17.992Z,3.40
2019-04-21T03:27:01.008Z,3.40
2019-04-21T03:32:16.783Z,3.40
2019-04-21T03:34:41.232Z,3.40
2019-04-21T03:37:04.906Z,3.40
2019-04-21T03:39:24.215Z,3.40
2019-04-21T03:41:40.323Z,3.40
2019-04-21T03:44:02.980Z,3.40
2019-04-21T03:46:37.323Z,3.40
2019-04-21T03:49:02.246Z,3.40
2019-04-21T03:53:54.290Z,3.40
2019-04-21T03:56:27.784Z,3.40
2019-04-21T03:58:54.400Z,3.40
2019-04-21T04:09:06.438Z,3.40
2019-04-21T04:11:23.002Z,3.40
2019-04-21T04:13:57.954Z,3.40
2019-04-21T04:16:20.227Z,3.50
2019-04-21T04:21:19.956Z,3.50
2019-04-21T04:23:45.642Z,3.50
2019-04-21T04:28:50.147Z,3.50
2019-04-21T04:31:20.408Z,3.60
2019-04-21T04:33:48.758Z,3.60
2019-04-21T04:36:17.257Z,3.70
2019-04-21T04:39:00.299Z,3.70
2019-04-21T04:41:32.903Z,3.80
2019-04-21T04:43:39.056Z,3.80
2019-04-21T04:46:16.044Z,3.90
2019-04-21T04:48:34.887Z,4.00
2019-04-21T04:51:23.330Z,4.10
2019-04-21T04:58:44.590Z,4.40
2019-04-21T05:01:06.225Z,4.50
2019-04-21T05:03:40.154Z,4.60
2019-04-21T05:06:25.194Z,4.60
2019-04-21T05:08:58.903Z,4.70
2019-04-21T05:11:23.537Z,4.80
2019-04-21T05:13:43.456Z,4.90
2019-04-21T05:16:13.768Z,5.10
2019-04-21T05:18:43.873Z,5.20
2019-04-21T05:21:16.894Z,5.30
2019-04-21T05:23:29.218Z,5.50
2019-04-21T05:25:45.666Z,5.70
2019-04-21T05:28:12.497Z,5.90
2019-04-21T05:31:13.059Z,6.30
2019-04-21T05:33:38.388Z,6.70
2019-04-21T05:36:11.379Z,7.30
2019-04-21T05:38:41.769Z,7.70
2019-04-21T05:41:06.776Z,8.10
2019-04-21T05:43:50.118Z,8.60
2019-04-21T05:46:14.300Z,9.00
2019-04-21T05:48:52.508Z,9.40
2019-04-21T05:51:25.840Z,9.70
2019-04-21T05:53:56.144Z,10.00
2019-04-21T05:56:25.659Z,10.20
2019-04-21T05:58:49.757Z,10.20
2019-04-21T06:01:28.765Z,10.20
2019-04-21T06:03:53.178Z,10.20
2019-04-21T06:06:22.017Z,10.20
2019-04-21T06:08:44.966Z,10.20
2019-04-21T06:11:20.037Z,10.10
2019-04-21T06:13:51.546Z,10.00
2019-04-21T06:16:12.157Z,9.90
2019-04-21T06:18:48.809Z,9.80
2019-04-21T06:21:05.672Z,9.70
2019-04-21T06:23:36.328Z,9.70
2019-04-21T06:28:37.573Z,9.60
2019-04-21T06:31:05.548Z,9.60
2019-04-21T06:33:27.626Z,9.60
2019-04-21T06:39:01.769Z,9.70
2019-04-21T06:41:21.292Z,9.80
2019-04-21T06:43:51.655Z,9.80
2019-04-21T06:46:21.342Z,9.90
2019-04-21T06:48:47.943Z,10.00
2019-04-21T06:51:15.369Z,10.00
2019-04-21T06:53:50.253Z,10.10
2019-04-21T06:56:08.202Z,10.20
2019-04-21T06:58:38.533Z,10.30
2019-04-21T07:01:02.446Z,10.40
2019-04-21T07:03:34.669Z,10.50
2019-04-21T07:06:03.239Z,10.70
2019-04-21T07:08:34.677Z,10.80
2019-04-21T07:10:59.142Z,10.90
2019-04-21T07:13:22.249Z,10.90
2019-04-21T07:15:53.156Z,11.20
2019-04-21T07:18:19.545Z,11.30
2019-04-21T07:20:49.485Z,11.30
2019-04-21T07:23:16.395Z,11.50
2019-04-21T07:25:51.141Z,11.70
2019-04-21T07:28:25.459Z,11.70
2019-04-21T07:31:00.749Z,11.80
2019-04-21T07:33:49.301Z,11.90
2019-04-21T07:35:55.664Z,12.10
2019-04-21T07:38:24.211Z,12.20
2019-04-21T07:40:45.564Z,12.30
2019-04-21T07:43:12.205Z,12.50
2019-04-21T07:45:40.526Z,12.60
2019-04-21T07:49:54.962Z,12.70
2019-04-21T07:52:26.485Z,12.90
2019-04-21T07:55:01.658Z,13.00
2019-04-21T07:57:15.177Z,13.10
2019-04-21T07:59:55.118Z,13.30
2019-04-21T08:02:20.368Z,13.40
2019-04-21T08:04:53.975Z,13.50
2019-04-21T08:07:14.868Z,13.60
2019-04-21T08:09:42.668Z,13.80
2019-04-21T08:12:04.387Z,13.80
2019-04-21T08:14:38.440Z,13.90
2019-04-21T08:17:03.295Z,14.10
2019-04-21T08:19:32.186Z,14.20
2019-04-21T08:22:05.243Z,14.40
2019-04-21T08:24:28.560Z,14.50
2019-04-21T08:27:03.306Z,14.60
2019-04-21T08:29:35.016Z,14.70
2019-04-21T08:31:56.085Z,14.80
2019-04-21T08:34:24.193Z,15.00
2019-04-21T08:36:44.949Z,15.10
2019-04-21T08:39:13.425Z,15.20
2019-04-21T08:41:46.900Z,15.40
2019-04-21T08:44:15.107Z,15.50
2019-04-21T08:46:38.722Z,15.60
2019-04-21T08:49:09.374Z,15.60
2019-04-21T08:51:39.540Z,15.70
2019-04-21T08:54:09.261Z,15.90
2019-04-21T08:56:46.654Z,16.00
2019-04-21T08:59:21.847Z,16.10
2019-04-21T09:01:53.341Z,16.20
2019-04-21T09:04:13.170Z,16.30
2019-04-21T09:07:12.800Z,16.40
2019-04-21T09:11:44.488Z,16.70
2019-04-21T09:14:07.295Z,16.90
2019-04-21T09:16:32.240Z,17.00
2019-04-21T09:18:56.954Z,17.70
2019-04-21T09:21:35.510Z,17.40
2019-04-21T09:23:55.970Z,17.50
2019-04-21T09:26:28.262Z,17.60
2019-04-21T09:28:50.156Z,17.80
2019-04-21T09:31:06.619Z,17.90
2019-04-21T09:33:40.882Z,18.00
2019-04-21T09:36:04.580Z,18.00
2019-04-21T09:38:36.517Z,18.00
2019-04-21T09:40:57.931Z,18.10
2019-04-21T09:43:34.319Z,18.10
2019-04-21T09:45:53.913Z,18.20
2019-04-21T09:48:22.459Z,18.20
2019-04-21T09:50:48.551Z,18.20
2019-04-21T09:53:26.333Z,18.40
2019-04-21T09:55:50.538Z,18.40
2019-04-21T09:58:23.224Z,18.50
2019-04-21T10:00:52.397Z,18.50
2019-04-21T10:03:11.713Z,18.50
2019-04-21T10:05:34.571Z,18.60
2019-04-21T10:08:01.319Z,18.70
2019-04-21T10:10:27.662Z,18.80
2019-04-21T10:12:54.041Z,19.00
2019-04-21T10:15:23.274Z,19.10
2019-04-21T10:17:53.991Z,19.30
2019-04-21T10:20:20.583Z,19.30
2019-04-21T10:22:46.875Z,19.50
2019-04-21T10:25:14.524Z,19.60
2019-04-21T10:27:41.237Z,19.70
2019-04-21T10:30:09.853Z,19.70
2019-04-21T10:32:36.446Z,19.80
2019-04-21T10:35:05.494Z,19.80
2019-04-21T10:37:42.373Z,19.90
2019-04-21T10:40:00.129Z,20.00
2019-04-21T10:42:26.988Z,20.10
2019-04-21T10:44:53.168Z,20.00
2019-04-21T10:47:20.601Z,20.10
2019-04-21T10:49:46.954Z,20.10
2019-04-21T10:52:15.297Z,20.00
2019-04-21T10:55:03.345Z,20.10
2019-04-21T10:57:12.495Z,20.20
2019-04-21T10:59:40.400Z,20.30
2019-04-21T11:02:08.643Z,20.40
2019-04-21T11:04:37.406Z,20.50
2019-04-21T11:07:10.722Z,20.60
2019-04-21T11:09:33.969Z,20.70
2019-04-21T11:12:00.190Z,20.70
2019-04-21T11:14:27.204Z,20.70
2019-04-21T11:16:54.755Z,20.40
2019-04-21T11:19:22.142Z,20.30
2019-04-21T11:21:49.341Z,20.40
2019-04-21T11:24:16.233Z,20.50
2019-04-21T11:26:43.524Z,20.60
2019-04-21T11:29:10.759Z,20.70
2019-04-21T11:31:36.977Z,20.60
2019-04-21T11:34:03.475Z,20.70
2019-04-21T11:36:29.606Z,20.80
2019-04-21T11:39:14.895Z,20.90
2019-04-21T11:41:29.740Z,21.00
2019-04-21T11:43:57.176Z,21.00
2019-04-21T11:46:24.500Z,21.10
2019-04-21T11:48:52.555Z,21.10
2019-04-21T11:51:19.242Z,21.00
2019-04-21T11:53:46.582Z,21.00
2019-04-21T11:56:12.794Z,20.90
2019-04-21T11:58:39.527Z,21.10
2019-04-21T12:01:07.542Z,21.20
2019-04-21T12:03:33.903Z,21.20
2019-04-21T12:06:00.017Z,21.30
2019-04-21T12:08:36.214Z,21.40
2019-04-21T12:10:55.587Z,21.40
2019-04-21T12:13:22.384Z,21.40
2019-04-21T12:15:49.207Z,21.50
2019-04-21T12:18:15.593Z,21.60
2019-04-21T12:20:43.044Z,21.70
2019-04-21T12:23:09.281Z,21.70
2019-04-21T12:25:37.320Z,21.80
2019-04-21T12:28:03.710Z,21.80
2019-04-21T12:30:29.959Z,21.80
2019-04-21T12:33:14.024Z,21.80
2019-04-21T12:35:40.279Z,21.80
2019-04-21T12:38:06.780Z,21.70
2019-04-21T12:40:33.052Z,21.30
2019-04-21T12:42:59.143Z,21.30
2019-04-21T12:45:26.092Z,21.40
2019-04-21T12:47:53.792Z,21.40
2019-04-21T12:50:21.486Z,21.50
2019-04-21T12:52:47.804Z,21.50
2019-04-21T12:55:15.474Z,21.40
2019-04-21T12:57:41.744Z,21.40
2019-04-21T13:00:11.105Z,21.40
2019-04-21T13:02:37.936Z,21.50
2019-04-21T13:05:05.448Z,21.60
2019-04-21T13:07:33.193Z,21.60
2019-04-21T13:10:00.122Z,21.60
2019-04-21T13:12:26.940Z,21.70
2019-04-21T13:14:54.790Z,21.70
2019-04-21T13:17:21.469Z,21.80
2019-04-21T13:22:32.229Z,21.90
2019-04-21T13:24:58.319Z,22.00
2019-04-21T13:27:24.796Z,22.00
2019-04-21T13:29:52.323Z,22.00
2019-04-21T13:32:18.650Z,22.00
2019-04-21T13:34:46.019Z,22.00
2019-04-21T13:37:12.671Z,22.00
2019-04-21T13:40:23.618Z,22.00
2019-04-21T13:42:42.668Z,22.00
2019-04-21T13:45:06.401Z,22.00
2019-04-21T13:47:34.742Z,22.00
2019-04-21T13:50:02.932Z,22.10
2019-04-21T13:52:29.010Z,22.10
2019-04-21T13:54:55.887Z,22.10
2019-04-21T13:57:22.710Z,22.10
2019-04-21T13:59:49.557Z,22.00
2019-04-21T14:02:18.246Z,22.10
2019-04-21T14:04:45.369Z,22.10
2019-04-21T14:07:12.221Z,22.10
2019-04-21T14:09:48.946Z,22.10
2019-04-21T14:12:07.620Z,22.00
2019-04-21T14:14:34.531Z,22.00
2019-04-21T14:17:00.739Z,22.00
2019-04-21T14:19:27.770Z,22.00
2019-04-21T14:21:55.210Z,22.00
2019-04-21T14:24:22.574Z,22.10
2019-04-21T14:26:50.088Z,22.00
2019-04-21T14:29:17.576Z,22.00
2019-04-21T14:31:44.314Z,22.00
2019-04-21T14:34:12.052Z,21.80
2019-04-21T14:36:38.958Z,21.70
2019-04-21T14:39:08.161Z,21.60
2019-04-21T14:41:34.352Z,21.50
2019-04-21T14:44:00.699Z,21.50
2019-04-21T14:46:29.139Z,21.50
2019-04-21T14:49:06.463Z,21.60
2019-04-21T14:51:37.337Z,21.60
2019-04-21T14:54:15.178Z,21.70
2019-04-21T14:56:43.012Z,21.70
2019-04-21T14:59:09.315Z,21.60
2019-04-21T15:01:35.879Z,21.60
2019-04-21T15:04:03.732Z,21.60
2019-04-21T15:06:30.049Z,21.60
2019-04-21T15:08:57.447Z,21.60
2019-04-21T15:11:24.208Z,21.60
2019-04-21T15:13:51.360Z,21.60
2019-04-21T15:16:18.697Z,21.60
2019-04-21T15:18:46.453Z,21.70
2019-04-21T15:21:13.284Z,21.60
2019-04-21T15:23:40.297Z,21.60
2019-04-21T15:26:07.964Z,21.60
2019-04-21T15:28:36.948Z,21.60
2019-04-21T15:31:02.905Z,21.60
2019-04-21T15:33:29.142Z,21.60
2019-04-21T15:35:55.403Z,21.60
2019-04-21T15:38:22.233Z,21.60
2019-04-21T15:40:53.866Z,21.60
2019-04-21T15:43:16.508Z,21.50
2019-04-21T15:45:42.705Z,21.50
2019-04-21T15:48:09.880Z,21.50
2019-04-21T15:50:37.660Z,21.50
2019-04-21T15:53:09.719Z,21.50
2019-04-21T15:55:56.889Z,21.50
2019-04-21T15:58:34.713Z,21.40
2019-04-21T16:01:02.879Z,21.40
2019-04-21T16:03:29.072Z,21.40
2019-04-21T16:05:55.805Z,21.40
2019-04-21T16:08:22.077Z,21.30
2019-04-21T16:10:54.719Z,21.30
2019-04-21T16:13:16.256Z,21.30
2019-04-21T16:15:42.353Z,21.20
2019-04-21T16:18:09.977Z,21.20
2019-04-21T16:20:37.563Z,21.20
2019-04-21T16:23:04.558Z,21.10
2019-04-21T16:25:30.909Z,21.10
2019-04-21T16:27:57.279Z,21.00
2019-04-21T16:30:23.907Z,21.00
2019-04-21T16:32:50.312Z,20.90
2019-04-21T16:35:18.689Z,20.90
2019-04-21T16:37:45.839Z,20.80
2019-04-21T16:40:13.754Z,20.80
2019-04-21T16:42:40.431Z,20.70
2019-04-21T16:45:08.068Z,20.70
2019-04-21T16:47:35.702Z,20.60
2019-04-21T16:50:07.677Z,20.50
2019-04-21T16:52:40.180Z,20.50
2019-04-21T16:55:26.882Z,20.50
2019-04-21T16:58:06.294Z,20.40
2019-04-21T17:00:36.186Z,20.30
2019-04-21T17:02:54.694Z,20.30
2019-04-21T17:05:22.460Z,20.30
2019-04-21T17:07:49.228Z,20.20
2019-04-21T17:10:16.957Z,20.20
2019-04-21T17:12:43.454Z,20.20
2019-04-21T17:15:25.181Z,20.10
2019-04-21T17:18:00.404Z,20.10
2019-04-21T17:20:19.301Z,20.00
2019-04-21T17:22:35.531Z,20.00
2019-04-21T17:25:02.643Z,19.90
2019-04-21T17:27:29.240Z,19.90
2019-04-21T17:29:56.653Z,19.80
2019-04-21T17:32:25.012Z,19.70
2019-04-21T17:34:52.026Z,19.70
2019-04-21T17:37:20.641Z,19.60
2019-04-21T17:39:46.903Z,19.50
2019-04-21T17:42:24.205Z,19.30
2019-04-21T17:44:41.319Z,19.20
2019-04-21T17:47:21.793Z,19.10
2019-04-21T17:49:37.058Z,19.00
2019-04-21T17:52:25.037Z,18.90
2019-04-21T17:55:10.397Z,18.70
2019-04-21T17:57:52.033Z,18.60
2019-04-21T18:00:23.890Z,18.50
2019-04-21T18:02:47.901Z,18.30
2019-04-21T18:05:15.208Z,18.20
2019-04-21T18:07:46.503Z,18.00
2019-04-21T18:10:27.376Z,17.90
2019-04-21T18:12:35.965Z,17.90
2019-04-21T18:15:02.644Z,17.70
2019-04-21T18:17:18.331Z,17.60
2019-04-21T18:19:47.473Z,17.50
2019-04-21T18:22:17.576Z,17.40
2019-04-21T18:24:57.969Z,17.30
2019-04-21T18:27:17.445Z,17.20
2019-04-21T18:29:44.434Z,17.00
2019-04-21T18:32:10.684Z,16.90
2019-04-21T18:34:53.775Z,16.90
2019-04-21T18:37:27.119Z,16.70
2019-04-21T18:40:00.050Z,16.60
2019-04-21T18:42:31.297Z,16.50
2019-04-21T18:45:36.091Z,16.40
2019-04-21T18:47:55.473Z,16.30
2019-04-21T18:50:35.514Z,16.10
2019-04-21T18:53:08.919Z,16.00
2019-04-21T18:55:32.255Z,15.90
2019-04-21T18:57:55.030Z,15.90
2019-04-21T19:00:30.720Z,15.80
2019-04-21T19:02:54.201Z,15.70
2019-04-21T19:05:21.587Z,15.60
2019-04-21T19:08:02.952Z,15.50
2019-04-21T19:10:36.401Z,15.40
2019-04-21T19:13:31.609Z,15.40
2019-04-21T19:15:28.177Z,15.30
2019-04-21T19:18:28.096Z,15.20
2019-04-21T19:20:32.887Z,15.10
2019-04-21T19:22:52.173Z,15.10
2019-04-21T19:25:24.005Z,15.00
2019-04-21T19:27:48.802Z,14.90
2019-04-21T19:30:28.791Z,14.80
2019-04-21T19:32:46.688Z,14.70
2019-04-21T19:35:01.876Z,14.50
2019-04-21T19:37:28.890Z,14.40
2019-04-21T19:40:07.737Z,14.40
2019-04-21T19:42:35.478Z,14.20
2019-04-21T19:45:09.306Z,14.10
2019-04-21T19:47:42.314Z,14.00
2019-04-21T19:50:09.569Z,13.90
2019-04-21T19:52:30.536Z,13.80
2019-04-21T19:54:47.304Z,13.70
2019-04-21T19:57:13.228Z,13.60
2019-04-21T19:59:44.764Z,13.60
2019-04-21T20:02:08.996Z,13.50
2019-04-21T20:04:42.766Z,13.40
2019-04-21T20:07:22.103Z,13.30
2019-04-21T20:09:47.778Z,13.30
2019-04-21T20:12:18.460Z,13.20
2019-04-21T20:15:08.161Z,13.10
2019-04-21T20:17:08.878Z,13.10
2019-04-21T20:19:24.791Z,13.00
2019-04-21T20:21:51.260Z,12.90
2019-04-21T20:24:23.304Z,10.90
2019-04-21T20:26:54.496Z,12.80
2019-04-21T20:29:32.749Z,12.70
2019-04-21T20:31:54.477Z,12.60
2019-04-21T20:34:33.583Z,12.60
2019-04-21T20:36:56.805Z,12.50
2019-04-21T20:39:17.182Z,12.60
2019-04-21T20:41:53.633Z,12.60
2019-04-21T20:44:27.755Z,12.60
2019-04-21T20:46:51.011Z,12.60
2019-04-21T20:49:15.963Z,12.60
2019-04-21T20:51:58.265Z,12.50
2019-04-21T20:54:15.811Z,12.50
2019-04-21T20:56:45.149Z,12.50
2019-04-21T20:59:13.875Z,12.40
2019-04-21T21:02:00.550Z,12.40
2019-04-21T21:04:10.258Z,12.40
2019-04-21T21:06:36.189Z,12.30
2019-04-21T21:09:04.856Z,12.30
2019-04-21T21:11:42.309Z,12.30
2019-04-21T21:14:00.396Z,12.20
2019-04-21T21:16:35.680Z,12.10
2019-04-21T21:19:10.288Z,12.10
2019-04-21T21:21:24.382Z,12.00
2019-04-21T21:23:53.078Z,12.00
2019-04-21T21:26:25.316Z,12.00
2019-04-21T21:28:46.058Z,11.90
2019-04-21T21:31:20.343Z,11.90
2019-04-21T21:33:59.082Z,11.90
2019-04-21T21:36:13.462Z,11.80
2019-04-21T21:38:43.452Z,11.70
2019-04-21T21:41:03.251Z,11.70
2019-04-21T21:43:23.595Z,11.70
2019-04-21T21:45:53.578Z,11.70
2019-04-21T21:48:31.677Z,11.50
2019-04-21T21:50:54.189Z,11.60
2019-04-21T21:55:40.719Z,11.60
2019-04-21T21:58:08.500Z,11.60
2019-04-21T22:00:37.010Z,11.50
2019-04-21T22:03:13.636Z,11.50
2019-04-21T22:05:42.628Z,11.50
2019-04-21T22:08:00.561Z,11.50
2019-04-21T22:10:27.266Z,11.40
2019-04-21T22:13:02.242Z,11.40
2019-04-21T22:15:24.896Z,11.40
2019-04-21T22:18:07.518Z,11.40
2019-04-21T22:20:37.800Z,11.30
2019-04-21T22:22:56.321Z,11.30
2019-04-21T22:25:22.613Z,11.30
2019-04-21T22:27:43.491Z,11.30
2019-04-21T22:30:13.045Z,11.30
2019-04-21T22:32:38.651Z,11.30
2019-04-21T22:35:11.347Z,11.20
2019-04-21T22:37:43.688Z,11.20
2019-04-21T22:40:16.695Z,11.10
2019-04-21T22:42:44.386Z,11.10
2019-04-21T22:45:01.664Z,11.00
2019-04-21T22:47:33.746Z,11.00
2019-04-21T22:49:56.849Z,10.90
2019-04-21T22:52:27.515Z,10.90
2019-04-21T22:54:52.261Z,10.90
2019-04-21T22:57:23.047Z,10.80
2019-04-21T22:59:53.860Z,10.80
2019-04-21T23:02:21.110Z,10.80
2019-04-21T23:04:47.583Z,10.80
2019-04-21T23:07:15.449Z,10.80
2019-04-21T23:09:38.632Z,10.80
2019-04-21T23:12:05.038Z,10.80
2019-04-21T23:14:33.878Z,10.70
2019-04-21T23:17:17.695Z,10.70
2019-04-21T23:19:41.402Z,10.70
2019-04-21T23:22:15.015Z,10.60
2019-04-21T23:24:48.146Z,10.60
2019-04-21T23:27:04.819Z,10.60
2019-04-21T23:29:48.242Z,10.50
2019-04-21T23:32:02.996Z,10.50
2019-04-21T23:34:23.180Z,10.40
2019-04-21T23:36:53.044Z,10.40
2019-04-21T23:39:15.859Z,10.40
2019-04-21T23:41:43.486Z,10.40
2019-04-21T23:44:11.440Z,10.30
2019-04-21T23:46:36.879Z,10.30
2019-04-21T23:49:20.142Z,10.30
2019-04-21T23:51:43.447Z,10.30
2019-04-21T23:53:59.511Z,10.30
2019-04-21T23:56:29.970Z,10.30
2019-04-21T23:59:02.646Z,10.20
